Weather reports worldwide

Advertisment
Adra, Spain (8486): temperature & dewpoint: 17.05.2019 14:00:00 - 23.05.2019 14:00:00 (CEST)Adra, Spain (8486): wind speed & gusts: 17.05.2019 14:00:00 - 23.05.2019 14:00:00 (CEST)Adra, Spain (8486): wind direction: 17.05.2019 14:00:00 - 23.05.2019 14:00:00 (CEST)Adra, Spain (8486): reduced air pressure: 17.05.2019 14:00:00 - 23.05.2019 14:00:00 (CEST)Adra, Spain (8486): precipitation: 17.05.2019 14:00:00 - 23.05.2019 14:00:00 (CEST)
Date & Time tt [°C] td [°C] ff [km/h] ff [kn] fx [km/h] fx [kn] dd ppp [hPa] rr [mm]
23.05.2019 14:00:00 - - - - - - - - -
23.05.2019 13:00:00 24,3 10,9 3 1 12 7 SSE 1017,2 0,0
23.05.2019 12:00:00 25,7 6,4 4 2 8 4 SSE 1017,3 0,0
23.05.2019 11:00:00 23,9 9,4 5 3 13 7 SW 1017,2 0,0
23.05.2019 10:00:00 22,4 8,5 9 5 14 7 W 1017,5 0,0
23.05.2019 09:00:00 24,1 10,8 6 3 20 11 NNE 1016,3 0,0
23.05.2019 08:00:00 21,3 9,8 8 4 19 10 NNE 1017,2 -
23.05.2019 07:00:00 20,1 9,3 5 3 10 6 NNE 1017,9 0,0
23.05.2019 06:00:00 19,2 9,4 5 3 16 9 NNE 1018,2 0,0
23.05.2019 05:00:00 18,9 10,2 0 0 5 3 NNE 1018,6 0,0
23.05.2019 04:00:00 18,2 10,3 0 0 5 3 N 1019,3 0,0
23.05.2019 03:00:00 18,4 10,3 0 0 4 2 NW 1019,5 0,0
23.05.2019 02:00:00 18,5 10,5 3 1 5 3 NNW 1019,7 -
23.05.2019 01:00:00 18,6 13,9 1 1 9 5 WSW 1019,8 0,0
23.05.2019 00:00:00 19,1 14,8 5 3 8 4 WSW 1019,4 0,0
22.05.2019 23:00:00 19,1 16,3 5 3 10 5 WSW 1018,8 0,0
22.05.2019 22:00:00 19,0 16,2 5 3 7 4 WSW 1018,3 0,0
22.05.2019 21:00:00 19,9 16,0 4 2 11 6 SSE 1017,6 0,0
22.05.2019 20:00:00 20,4 15,2 7 4 10 6 SE 1017,0 -
22.05.2019 19:00:00 20,8 14,9 7 4 12 7 SSE 1016,6 0,0
22.05.2019 18:00:00 20,6 15,6 8 4 11 6 SE 1017,1 0,0
22.05.2019 17:00:00 21,3 15,6 5 3 11 6 SE 1016,9 0,0
22.05.2019 16:00:00 22,2 15,8 4 2 14 7 SSE 1017,3 0,0
22.05.2019 15:00:00 22,9 16,5 2 1 9 5 S 1017,1 0,0
22.05.2019 14:00:00 22,9 16,5 1 1 12 6 S 1017,7 -
22.05.2019 13:00:00 22,1 15,7 3 1 9 5 S 1017,8 0,0
22.05.2019 12:00:00 20,7 15,4 4 2 14 8 SE 1017,9 0,0
22.05.2019 11:00:00 19,5 15,2 8 4 19 10 ESE 1017,9 0,0
22.05.2019 10:00:00 19,8 14,4 13 7 18 10 ESE 1017,9 0,0
22.05.2019 09:00:00 19,9 13,2 11 6 21 12 E 1017,7 0,0
22.05.2019 08:00:00 18,5 13,2 6 3 18 10 NNE 1017,5 -
22.05.2019 07:00:00 17,8 13,9 4 2 12 7 NE 1018,1 0,0
22.05.2019 06:00:00 17,8 15,4 2 1 8 4 E 1017,9 0,0
22.05.2019 05:00:00 17,0 15,9 1 0 5 3 ENE 1018,2 0,0
22.05.2019 04:00:00 17,3 16,3 0 0 3 1 SSE 1018,4 0,0
22.05.2019 03:00:00 17,4 16,2 1 1 10 5 SSE 1018,6 0,0
22.05.2019 02:00:00 17,9 16,6 1 0 5 3 SSW 1018,4 -
22.05.2019 01:00:00 18,0 16,5 0 0 5 3 SSW 1018,2 0,0
22.05.2019 00:00:00 18,6 16,4 2 1 10 6 SSE 1017,8 0,0
21.05.2019 23:00:00 18,8 16,0 3 2 12 6 E 1017,4 0,0
21.05.2019 22:00:00 18,5 16,3 3 2 8 4 ESE 1016,6 0,0
21.05.2019 21:00:00 19,1 15,3 5 3 10 5 ESE 1015,8 0,0
21.05.2019 20:00:00 19,5 15,5 5 3 8 5 SSE 1014,7 -
21.05.2019 19:00:00 21,6 15,0 3 2 8 4 S 1013,7 0,0
21.05.2019 18:00:00 22,6 15,0 2 1 9 5 SSE 1013,7 0,0
21.05.2019 17:00:00 21,0 15,1 2 1 10 5 SSE 1014,3 0,0
21.05.2019 16:00:00 21,3 15,8 3 1 10 6 S 1013,8 0,0
21.05.2019 15:00:00 21,1 15,4 3 2 11 6 SE 1013,8 0,0
21.05.2019 14:00:00 21,0 14,9 3 2 12 6 SSE 1014,9 -
21.05.2019 13:00:00 19,9 14,7 2 1 10 6 E 1014,9 0,0
21.05.2019 12:00:00 19,9 16,6 5 3 14 7 SE 1014,7 0,0
21.05.2019 11:00:00 18,8 16,0 8 4 18 10 ESE 1014,8 0,0
21.05.2019 10:00:00 19,4 16,2 7 4 14 8 ESE 1014,6 0,0
21.05.2019 09:00:00 18,7 16,3 6 3 12 6 E 1014,5 0,0
21.05.2019 08:00:00 17,6 14,7 3 2 10 5 E 1014,7 -
21.05.2019 07:00:00 17,2 15,0 3 2 10 6 E 1014,2 0,0
21.05.2019 06:00:00 17,3 15,4 1 1 11 6 ENE 1014,0 0,0
21.05.2019 05:00:00 17,5 15,3 4 2 16 9 ENE 1014,0 0,0
21.05.2019 04:00:00 17,2 15,2 5 3 12 6 ENE 1014,0 0,0
21.05.2019 03:00:00 17,5 16,2 3 2 9 5 ENE 1014,2 0,0
21.05.2019 02:00:00 17,4 16,2 3 2 6 4 E 1014,6 -
21.05.2019 01:00:00 17,2 15,9 0 0 10 5 SSE 1014,7 0,0
21.05.2019 00:00:00 17,4 15,9 8 4 13 7 W 1014,1 0,0
20.05.2019 23:00:00 17,9 15,7 7 4 14 7 W 1013,8 0,0
20.05.2019 22:00:00 17,8 15,6 7 4 13 7 W 1013,0 0,0
20.05.2019 21:00:00 18,5 14,8 9 5 17 9 W 1012,6 0,0
20.05.2019 20:00:00 20,2 16,0 3 2 8 4 S 1011,0 -
20.05.2019 19:00:00 20,7 15,4 4 2 13 7 S 1010,8 0,0
20.05.2019 18:00:00 20,5 15,3 4 2 18 10 SSW 1011,3 0,0
20.05.2019 17:00:00 19,1 14,3 13 7 23 13 W 1012,2 0,0
20.05.2019 16:00:00 19,1 14,8 16 9 24 13 W 1012,5 0,0
20.05.2019 15:00:00 19,3 15,3 12 6 22 12 WSW 1013,0 0,0
20.05.2019 14:00:00 19,1 15,2 11 6 21 12 W 1013,3 -
20.05.2019 13:00:00 18,5 14,4 16 8 22 12 WSW 1013,9 0,0
20.05.2019 12:00:00 22,3 12,8 5 3 8 4 SW 1012,8 0,0
20.05.2019 11:00:00 19,1 15,0 4 2 8 5 SE 1013,0 0,0
20.05.2019 10:00:00 19,8 15,6 1 1 18 10 SSW 1012,4 0,0
20.05.2019 09:00:00 17,0 14,6 13 7 17 9 W 1012,6 0,0
20.05.2019 08:00:00 16,4 14,6 6 3 10 6 W 1012,6 -
20.05.2019 07:00:00 15,7 13,9 3 2 10 5 W 1012,4 0,0
20.05.2019 06:00:00 16,5 13,5 4 2 13 7 WNW 1011,9 0,0
20.05.2019 05:00:00 16,1 13,9 2 1 9 5 NW 1011,8 0,0
20.05.2019 04:00:00 16,1 14,1 3 2 10 6 WNW 1012,4 0,0
20.05.2019 03:00:00 16,6 13,9 4 2 8 4 W 1012,0 0,0
20.05.2019 02:00:00 16,7 13,8 4 2 10 5 WNW 1012,3 -
20.05.2019 01:00:00 17,3 13,5 1 1 8 4 NNE 1012,8 0,0
20.05.2019 00:00:00 18,1 13,8 2 1 9 5 NE 1012,4 0,0
19.05.2019 23:00:00 17,3 13,3 4 2 16 8 ENE 1012,3 0,0
19.05.2019 22:00:00 18,8 13,3 3 1 11 6 ENE 1011,0 0,0
19.05.2019 21:00:00 18,9 13,1 3 1 14 7 NE 1010,7 0,0
19.05.2019 20:00:00 18,2 13,1 6 3 26 14 WSW 1010,2 -
19.05.2019 19:00:00 17,8 13,4 16 8 30 16 WSW 1009,8 0,0
19.05.2019 18:00:00 17,9 12,7 23 13 45 25 WSW 1009,9 0,0
19.05.2019 17:00:00 18,5 12,0 25 13 40 22 W 1010,0 0,0
19.05.2019 16:00:00 18,2 12,0 24 13 39 21 W 1010,6 0,0
19.05.2019 15:00:00 18,4 10,8 29 15 48 26 W 1011,0 0,0
19.05.2019 14:00:00 18,0 10,9 24 13 39 21 WSW 1011,4 -
19.05.2019 13:00:00 17,9 10,5 19 11 34 18 W 1011,3 0,0
19.05.2019 12:00:00 19,8 12,1 6 3 21 11 SW 1010,5 0,0
19.05.2019 11:00:00 18,8 9,8 12 7 20 11 WSW 1011,5 0,0
19.05.2019 10:00:00 18,5 11,6 5 3 8 5 SE 1011,2 0,0
19.05.2019 09:00:00 17,3 12,2 0 0 7 4 SSE 1011,5 0,0
19.05.2019 08:00:00 16,1 11,2 2 1 6 3 W 1011,6 -
19.05.2019 07:00:00 17,3 8,1 0 0 10 6 N 1011,4 0,0
19.05.2019 06:00:00 16,0 11,8 0 0 6 3 WNW 1011,0 0,0
19.05.2019 05:00:00 16,5 11,7 1 1 16 8 SE 1011,1 0,0
19.05.2019 04:00:00 16,2 12,1 11 6 26 14 W 1011,2 0,0
19.05.2019 03:00:00 16,6 11,3 5 3 19 10 E 1010,9 0,0
19.05.2019 02:00:00 17,8 9,9 2 1 15 8 NE 1011,1 -
19.05.2019 01:00:00 18,0 7,4 2 1 7 4 N 1010,9 0,0
19.05.2019 00:00:00 17,6 10,2 7 4 20 11 W 1011,3 0,0
18.05.2019 23:00:00 17,3 11,8 11 6 35 19 WNW 1011,4 0,0
18.05.2019 22:00:00 17,9 11,4 11 6 40 22 WNW 1010,6 0,0
18.05.2019 21:00:00 17,6 12,1 26 14 56 30 W 1009,8 0,0
18.05.2019 20:00:00 19,5 10,8 32 17 58 31 W 1008,7 -
18.05.2019 19:00:00 18,9 11,7 35 19 69 37 W 1008,1 0,0
18.05.2019 18:00:00 18,6 11,2 39 21 62 34 W 1008,0 0,0
18.05.2019 17:00:00 18,7 11,0 37 20 60 32 W 1007,8 0,0
18.05.2019 16:00:00 18,7 11,2 29 16 53 29 W 1008,6 0,0
18.05.2019 15:00:00 19,0 10,3 30 16 51 28 WSW 1008,6 0,0
18.05.2019 14:00:00 19,3 10,5 18 10 41 22 SW 1008,6 -
18.05.2019 13:00:00 18,6 11,2 21 11 41 22 WSW 1009,0 0,0
18.05.2019 12:00:00 18,0 10,4 29 15 47 25 W 1009,2 0,0
18.05.2019 11:00:00 18,0 11,1 22 12 34 18 W 1009,4 0,0
18.05.2019 10:00:00 17,8 11,1 13 7 25 13 W 1009,7 0,0
18.05.2019 09:00:00 20,8 8,1 3 1 8 4 E 1008,5 0,0
18.05.2019 08:00:00 17,3 12,2 5 3 16 9 NW 1009,9 -
18.05.2019 07:00:00 18,8 4,5 6 3 12 7 NNE 1008,9 0,0
18.05.2019 06:00:00 16,8 9,4 4 2 9 5 NNW 1009,4 0,0
18.05.2019 05:00:00 16,9 11,8 4 2 13 7 NW 1009,2 0,0
18.05.2019 04:00:00 17,8 10,2 3 1 11 6 WNW 1009,4 0,0
18.05.2019 03:00:00 18,3 12,1 4 2 10 6 WNW 1009,6 0,0
18.05.2019 02:00:00 19,0 9,2 1 0 16 9 NNW 1010,3 -
18.05.2019 01:00:00 18,5 9,3 4 2 14 8 WSW 1010,2 0,0
18.05.2019 00:00:00 20,2 7,3 6 3 13 7 ENE 1009,9 0,0
17.05.2019 23:00:00 18,6 12,1 0 0 10 5 N 1010,4 0,0
17.05.2019 22:00:00 18,8 12,3 8 4 14 8 W 1009,8 0,0
17.05.2019 21:00:00 19,2 11,8 8 5 19 10 W 1008,7 0,0
17.05.2019 20:00:00 22,6 8,3 1 1 14 7 WSW 1007,5 -
17.05.2019 19:00:00 22,7 7,3 7 4 13 7 E 1007,2 0,0
17.05.2019 18:00:00 23,2 6,8 5 3 11 6 ESE 1006,9 0,0
17.05.2019 17:00:00 23,9 9,8 3 2 10 5 S 1006,6 0,0
17.05.2019 16:00:00 23,0 11,1 2 1 27 15 SE 1006,2 0,0
17.05.2019 15:00:00 20,6 10,4 18 10 35 19 W 1007,1 0,0
17.05.2019 14:00:00 21,3 10,4 18 10 41 22 W 1006,8 -

tt = temperature
td = dewpoint
ff = wind speed
fx = gusts
dd = wind direction
ppp = reduced air pressure
rr = precipitation

Next stations